TAF KSBD
KSBD 081734Z 0818/0918 VRB05KT 2SM BR SCT002 FM081900 26006KT 3SM BR SKC FM082100 26008KT P6SM FEW100 FM090300 26005KT P6SM SCT020 SCT030 FM090700 VRB04KT 5SM BR BKN015 FM091200 VRB04KT 5SM BR VCSH OVC015=
METAR KSBD
WC KSBD
WS KSBD
WV KSBD